Beranda Balap Motor (Hasil) Dragbike LSI 2019 Semarang : Ramai Sekali 680 Starter, Tahun 2020...

(Hasil) Dragbike LSI 2019 Semarang : Ramai Sekali 680 Starter, Tahun 2020 LSI Bikin Event Luar Jawa, Mantap Kalee

128
0

rodabalap.com – Wow, luar biasa ramainya! Line Speed Indonesia (LSI) Dragbike Championhip  2019 di sirkuit PRPP Tawangmas Semarang, Jateng pada hari Minggu 10 November. Bertepatan dengan hari pahlawan, lintasan tak cuma disesaki penonton yang haus nonton adu cepat. Peserta pun mencapai 680 starter. Begitu  informasi yang diterima penulis  RB dari Joko Pujiono selaku penyelenggara  komandan LSI Semarang.

Dari 17 kelas yang dimainkan, kelas bracketlah menjadi penyumbang strater terbanyak. Kelas ini memang punya tantangan tersendiri. Joki harus menghitung power dan putaran gas terhadap batas maksimal catatan waktu yang ditentukan.

Pak Tri (sebelah kiri) dan Pak Joko Pujiono

Selain itu pemicu ramainya starter tidak lain adalah bentuk apresiasi dari pihak penyelenggara yang kasih uang saku, jika juara di masing-masing kelas dan juga tambahan sebesar 500 rb dari ABRT20 Muffler Salatiga bagi pemakai knalpot ABRT20 Muffler di kelas Sport 2 Tak 155cc Pemula dan Lokal Karesidenan Semarang. Belum cukup sampai disitu peraih best time juga dapat fresh money 500 rb.

‘’Untuk tahun 2020 yang akan datang kita tetap dengan program utamakita yaitu latihan bersama LSI dragbike, kejuaraan dragrace serta kejuaraan open dragbike. Untuk dua event terakhir kita rencanakan akan dibikin berseri. Dengan nominal hadiah yang belum bisa kita sebutkan,’’terang Pak Tri selaku penyandang dana.

Pertanyaannya lagi nich, apakah hanya tiga event tersebut yang yang akan dipentaskan oleh LSI Semarang. Jawabanya tidak.’’Kita juga berencana bikin event road race di Jawa Tengah dan diluar Jawa. Soal lokasi dan dimana tempatnya, nantilah kita konfirmasikan,’’imbuh Pak Tri.

Berikut LSI Dragbike Championship Trial 2019m :

Kelas 1 BRACKET TIME 10 DETIK (PEMULA)
Pos NS N a m a Kota Team RT 60 FT Km/H Time
1 126 FERI ANDI AMBARAWA MDRT SPEED 00.166 2.130 101 00:10.007
2 94 ILHAM UNTO PATI MMBC FT HASIL KURMA 00.574 2.470 96 00:10.045
3 294 SATRIA FIRR SEMARANG DAKCAK RACING TEAM 00.394 2.724 117 00:10.047
4 425 KAJI OMPONG DEMAK YAHYA RACING 00.448 2.525 110 00:10.102
5 617 GEPENG LOPE-LOPE 0 ART 99 00.393 2.425 107 00:10.106
Kelas 2 BRACKET TIME 9.5 DETIK (PEMULA)
Pos NS N a m a Kota Team RT 60 FT Km/H Time
1 393 ALIF CHILD PEKALONGAN AK125 FT BPM 00.330 2.161 115 00:09.514
2 536 SARKAWI 0 0 00.239 2.187 114 00:09.517
3 35 YOGA WARWER PEMALANG NIZAM SCRAF MCC RACING 00.291 2.160 108 00:09.517
4 620 MAKSUM KEPEL SEMARANG ANJAYA PRIVATER LOS 00.096 2.027 100 00:09.528
5 380 TARA BONCEL JEPARA KARYAMUDA FEAT ROBI WLT 00.205 2.077 110 00:09.551
Kelas 3 BRACKET TIME 9 DETIK (PEMULA)
Pos NS N a m a Kota Team RT 60 FT Km/H Time
1 398 INDRA KADAL PEKALONGAN AK FEAT BPM 00.219 2.119 128 00:09.006
2 504 DAVID KECIL JEPARA KST RACING 00.351 2.128 119 00:09.013
3 248 AP MONYE JEPARA SR RACING FR M.RANGGA 00.158 2.028 119 00:09.023
4 2 FIKRY SEMARANG DTSP 00.173 2.195 117 00:09.028
5 136 AM RUKHAN PURWODADI BADESS PROJECT AK MODIFIED 00.243 2.195 119 00:09.048
Kelas 4 BRACKET TIME 8.5 DETIK (PEMULA)
Pos NS N a m a Kota Team RT 60 FT Km/H Time
1 297 ARDI KORDEX KLATEN KRICIK SPEED 00.144 1.942 123 00:08.503
2 634 LUTHFI MAULANA REMBANG KLK TECH FT H.DJAMIN LOMBOK 00.147 1.899 127 00:08.514
3 337 BOWO KEMEN PEKALONGAN TEBUALAS 76 00.086 1.824 129 00:08.518
4 682 ARSY ACIL KUDUS PUTRA AKAL 00.169 1.919 129 00:08.526
5 644 FREDY CODET REMBANG KJK TECH 00.275 2.001 125 00:08.527
Kelas 5 BRACKET TIME 8 DETIK (PEMULA)
Pos NS N a m a Kota Team RT 60 FT Km/H Time
1 539 ARIF UCIL SEMARANG BERKAHBARENG ERCUP 00.170 1.860 146 00:08.003
2 546 DHIMAS CEPOT PEKALONGAN BERKAH BARENG GROUP 00.235 1.991 145 00:08.033
3 45 RICKY SL SALATIGA KBJ 31 RACING 00.184 1.969 145 00:08.083
4 371 REYNAL REY JEPARA TRZ MUNA COLLECTION 00.118 1.813 129 00:08.150
5 32 AJI KELINCI KLATEN ENSO RT KLATEN 00.139 1.942 141 00:08.155
Kelas 6 BEBEK 4T TUNE UP 130CC (PEMULA)
Pos NS N a m a Kota Team RT 60 FT Km/H Time
1 243 RYAN BG SEMARANG WSRT WONS SPEED RACING TEAM DICKY 13 TMJ 00.111 1.847 133 00:08.123
2 302 EKA PUTRA MAGELANG PUTRA PANDAYA FT HCRS 00.143 1.801 124 00:08.280
3 351 RIO BLORA DIVA FT RACING HELL 00.060 1.843 126 00:08.302
4 14 ERY SE PURWODADI V-REINZ RH 57 FT CT RACING APPAREL 00.201 1.883 125 00:08.326
5 204 ARIF UCIL SEMARANG RKDDW RACING 00.059 1.796 124 00:08.340
Kelas 7 SPORT 2T STD 150CC (PEMULA)
Pos NS N a m a Kota Team RT 60 FT Km/H Time
1 307 REYNAL REY JEPARA MR.B ALWIBAWA BOTER 00.063 1.678 148 00:07.181
2 750 ARIF UCIL SEMARANG BARA-BERE 33 00.083 1.691 156 00:07.264
3 673 VANO K MAHENDRA 0 182 ASURANSI LOS 00.023 1.636 139 00:07.401
4 284 JOPAN PANS KUDUS GAMBS RAMA JP WK GARAGE 00.068 1.685 161 00:07.466
5 322 AKBAR NDARDER PEKALONGAN HRT PEKALONGAN 00.159 1.814 165 00:07.499
Kelas 8 MATIC TUNE UP 200CC (PEMULA)
Pos NS N a m a Kota Team RT 60 FT Km/H Time
1 27 NANANG KLOWOR DEMAK CEERTE K2TNN 00.164 1.775 141 00:07.748
2 26 VANO K MAHENDRA KLATEN CEERTE K2TNN 00.115 1.763 137 00:07.811
3 228 DONI AWANG PASURUAN ALKON RACING KJR GROUP 00.017 1.782 134 00:07.934
4 147 REYNAL REY SEMARANG CEERTE K2TNN 00.125 1.904 139 00:08.005
5 515 VANO K MAHENDRA KLATEN SELAMET INDONESIA 00.047 1.752 128 00:08.051
Kelas 9 FU PORTING 150CC (PEMULA)
Pos NS N a m a Kota Team RT 60 FT Km/H Time
1 372 ARDI CHILD JEPARA TRZ FT MUNA COLLECTION 00.095 1.723 140 00:07.700
2 15 ERY SE PURWODADI TRZ FT CT RACING APPAREL 00.010 1.661 131 00:07.735
3 389 GERY KATE JEPARA TRZ RACING JEPARA 00.019 1.795 133 00:07.988
4 373 REYNAL REY JEPARA TRZ MUNA COLECTION 00.013 1.721 130 00:08.069
5 420 BISMA YUDHA PURWODADI MR.BLACK RACING FT RAMA TEXTILE 00.012 1.769 129 00:08.166
Kelas 10 BEBEK 2T STD 116CC (PEMULA)
Pos NS N a m a Kota Team RT 60 FT Km/H Time
1 34 AJI KELINCI KLATEN WAN_SS TK2BRT KIPS 00.072 1.784 126 00:08.362
2 253 ARDI CHILD JEPARA CRAB HASIL LAUT CPIK 66 00.065 1.823 123 00:08.414
3 326 DIMAS CHEPOT PEKALONGAN HDT PEKALONGAN 00.031 1.780 130 00:08.426
4 390 AM RUKHAN PURWODADI WZK UNLIMITED 00.036 1.843 126 00:08.531
5 301 EKA PUTRA MAGELANG DMT MUFFLER FT HCRS 00.181 1.991 121 00:08.592
Kelas 12 SPORT 2T STD 150CC LOKAL KARES. SEMARANG
Pos NS N a m a Kota Team RT 60 FT Km/H Time
1 628 NANANG KLOWOR DEMAK 182 ASURANSI LOS 00.079 1.782 141 00:07.556
2 421 BISMA YUDHA PURWODADI WK FT RAMA TEXTILE 00.259 1.959 142 00:07.730
3 468 VILLA GEMBEL DEMAK B-BAZZTER RACING 00.011 1.692 142 00:07.874
4 236 RICKY SL SEMARANG WSRT WONS SPEED RACING TEAM DICKY 13 TMJ 00.141 1.981 133 00:08.105
5 397 AGUS BAMBANG DEMAK B-BAZZTER RACING 00.381 2.219 147 00:08.124
Kelas 13 FU PORTING 150CC LOKAL KARES. SEMARANG
Pos NS N a m a Kota Team RT 60 FT Km/H Time
1 712 ARIF UCIL SEMARANG 0 00.087 1.769 123 00:08.221
2 454 ILYAS SEMARANG ART WEDOS GIBAS HASIL TAMBANG 00.128 1.856 133 00:08.302
3 419 BISMA YUDHA PURWODADI MR.BLACK FT RAMA TEXTILE JRM 00.162 1.894 125 00:08.328
4 627 NANANG KLOWOR DEMAK 0 00.111 1.860 124 00:08.340
5 502 ERY SE GROBOGAN TRZ FT MUNA COLLECTION 00.095 1.840 142 00:08.380
Kelas 14 MINI GP POCKET BIKE FFA
Pos NS N a m a Kota Team RT 60 FT Km/H Time
1 705 RISQI JH SEMARANG ERZHET-OCTVZ RACING 00.147 3.204 73 00:13.568
2 605 ARYA MAHENDRA SEMARANG AM57-MOTOREX 00.141 3.307 70 00:14.248
3 790 BIVA ANANTAHIRA SEMARANG 0 00.240 3.509 59 00:14.778
4 607 OMAR SULE SEMARANG DELTA SPEED 00.338 3.596 51 00:16.065
5 706 FATHIR SEMARANG CYPUT RACING 00.027 3.349 46 00:16.102
Kelas 15 BRACKET TIME 9 DETIK (MEKANIK/CREW)
Pos NS N a m a Kota Team RT 60 FT Km/H Time
1 711 HOE UCIL TEMANGGUNG 119 TEAM 00.387 2.236 102 00:09.149
2 187 CHANDRA BOCIL DEMAK MRC 20 00.267 2.171 114 00:09.212
3 339 EKO MENDEM PEKALONGAN MENDHEM SPEED PEKALONGAN 00.006 2.172 108 00:09.401
4 690 FERRY ARDIYANSYAH PEKALONGAN PJM RACING PEKALONGAN 00.160 2.243 113 00:09.480
5 542 #N/A #N/A #N/A 000.25 2.259 114 00:09.550
Kelas 16 SPORT 4T TUNE UP 200CC (NON DOHC)
Pos NS N a m a Kota Team RT 60 FT Km/H Time
1 240 VANO K MAHENDRA SEMARANG WSRT WONS SPEED RACING TEAM DICKY 13 TMJ 00.046 1.781 133 00:08.014
2 238 ERY SE SEMARANG WSRT WONS SPEED RACING TEAM DICKY 13 TMJ 00.005 1.720 135 00:08.090
3 448 SYAPII DEMAK BAROKAH RACING TEAM 00.078 1.829 136 00:08.168
4 7 AP MONYE SEMARANG KW3 ROKE-ROKE 00.046 1.857 135 00:08.194
5 239 RYAN BG SEMARANG WSRT WONS SPEED RACING TEAM DICKY 13 TMJ 00.197 1.946 136 00:08.272
Kelas 17 FFA 200CC WANITA
Pos NS N a m a Kota Team RT 60 FT Km/H Time
1 24 PUTRI CIPRUT TEGAL CEERTE K2TNN 00.160 1.924 135 00:07.936
2 708 ARIZKA MARETA SALATIGA PRIVATER RACING MOTOR NGEPOT 00.133 1.910 134 00:07.992
3 29 INNA NUNIL WONOGIRI CEERTE K2TNN 00.217 1.932 138 00:08.071
4 501 EARLYSA LH CILACAP LPT FT CT RACING APPAREL 00.188 1.586 130 00:08.530
5 496 SIPPA HD PEMALANG HK PJR KLATEN 00.381 2.279 135 00:08.592
Kelas 18 BRACKET TIME 9 DETIK WANITA
Pos NS N a m a Kota Team RT 60 FT Km/H Time
1 469 SHILPA BOLONG KATOK E JEPARA PPRT 00.562 2.612 0 00:09.059
2 224 UKHTI CEMPLUK 0 CPP RACING 00.332 2.426 130 00:09.125
BEST    TIME    OF THE DAY
NS N a m a Kota Team Time
307 REYNAL REY JEPARA MR.B ALIBAWA BOTER 00:07.181
BEST    REACTION TIME    OF THE DAY
NS N a m a Kota Team Reaction Time
238 ERY SE SEMARANG WSRT WONS SPEED RACING TEAM DIKCY 13 TMJ 00.005
Printed : 10 Nop 2019 – 21:53:58                               Official Timing By  : LSI JUMPA RPM Timing System

 

LEAVE A REPLY

Please enter your comment!
Please enter your name here

This site uses Akismet to reduce spam. Learn how your comment data is processed.